Flight Track Log - Related Links

Times and Time Zones

All times are in EDT time to prevent confusion due to time zone crossing. See the AMF1026 flight status page for this flight to view local times or setup timezone preferences in your user account.

Time Position Orientation Groundspeed Altitude Reporting Facility
EDT Latitude Longitude Course Direction KTS MPH feet Rate Location/Type
Tue 08:48:24 PM 42.7569 -73.8058 335° Northwest 117 135 900  Level Boston Center
Tue 08:49:18 PM 42.7942 -73.8294 335° Northwest 185 213 1,900 1,304 Climbing Boston Center
Tue 08:50:19 PM 42.7661 -73.9078 244° Southwest 226 260 3,400 1,173 Climbing Boston Center
Tue 08:51:31 PM 42.7419 -73.9922 249° West 225 259 4,500 1,091 Climbing Boston Center
Tue 08:52:31 PM 42.7367 -74.0739 265° West 226 260 5,800 1,400 Climbing Boston Center
Tue 08:53:31 PM 42.7419 -74.1506 275° West 214 246 7,300 1,350 Climbing Boston Center
Tue 08:54:31 PM 42.7447 -74.2297 273° West 209 241 8,500 1,000 Climbing Boston Center
Tue 08:55:31 PM 42.7394 -74.3003 264° West 204 235 9,300 1,050 Climbing Boston Center
Tue 08:56:31 PM 42.7153 -74.3731 246° West 199 229 10,600 1,150 Climbing Boston Center
Tue 08:57:31 PM 42.6953 -74.4431 249° West 204 235 11,600 700 Climbing Boston Center
Tue 08:58:31 PM 42.6753 -74.5131 249° West 199 229 12,000 200 Climbing Boston Center
Tue 08:59:31 PM 42.6531 -74.5911 249° West 220 253 12,000  Level Boston Center
Tue 09:00:31 PM 42.6308 -74.6694 249° West 234 269 12,000  Level Boston Center
Tue 09:01:31 PM 42.6103 -74.7533 252° West 234 269 12,000  Level Boston Center
Tue 09:02:31 PM 42.5897 -74.8431 253° West 242 278 12,000  Level Boston Center
Tue 09:03:31 PM 42.5650 -74.9264 248° West 247 284 12,000 -50 Level Boston Center
Tue 09:04:31 PM 42.5422 -75.0103 250° West 247 284 11,900  Descending Boston Center
Tue 09:05:31 PM 42.5217 -75.0856 250° West 247 284 12,000 39 Climbing Boston Center
Tue 09:07:03 PM 42.4772 -75.2097 244° Southwest 248 285 12,000 -39 Level New York Center
Tue 09:08:03 PM 42.4472 -75.2892 243° Southwest 243 280 11,900 -51 Descending New York Center
Tue 09:09:00 PM 42.4192 -75.3686 244° Southwest 243 280 11,900  Level New York Center
Tue 09:10:01 PM 42.3892 -75.4478 243° Southwest 243 280 11,900  Level New York Center
Tue 09:11:02 PM 42.3608 -75.5328 246° West 243 280 11,900  Level New York Center
Tue 09:12:02 PM 42.3325 -75.6150 245° Southwest 243 280 11,900  Level New York Center
Tue 09:13:01 PM 42.3019 -75.6967 243° Southwest 243 280 11,900  Level New York Center
Tue 09:14:01 PM 42.2739 -75.7758 244° Southwest 243 280 11,900  Level New York Center
Tue 09:15:01 PM 42.2475 -75.8581 247° West 243 280 11,900  Level New York Center
Tue 09:16:03 PM 42.2208 -75.9456 248° West 248 285 11,900  Level New York Center
Tue 09:17:01 PM 42.1944 -76.0244 246° West 248 285 11,900  Level New York Center
Tue 09:18:01 PM 42.1656 -76.1089 245° Southwest 248 285 11,900  Level New York Center
Tue 09:19:02 PM 42.1389 -76.1936 247° West 248 285 11,900  Level New York Center
Tue 09:20:03 PM 42.1144 -76.2753 248° West 248 285 11,900  Level New York Center
Tue 09:21:03 PM 42.0856 -76.3597 245° Southwest 248 285 11,900  Level New York Center
Tue 09:22:00 PM 42.0589 -76.4383 245° Southwest 248 285 11,900  Level New York Center
Tue 09:23:01 PM 42.0319 -76.5225 247° West 248 285 11,900  Level New York Center
Tue 09:24:47 PM 41.9811 -76.6778 246° West 255 293 11,900  Level Cleveland Center
Tue 09:25:47 PM 41.9528 -76.7606 245° Southwest 250 288 11,900  Level Cleveland Center
Tue 09:26:47 PM 41.9261 -76.8375 245° Southwest 240 276 11,900  Level Cleveland Center
Tue 09:27:47 PM 41.8975 -76.9200 245° Southwest 240 276 11,900  Level Cleveland Center
Tue 09:28:47 PM 41.8667 -77.0000 243° Southwest 240 276 11,900  Level Cleveland Center
Tue 09:29:47 PM 41.8358 -77.0825 243° Southwest 240 276 11,900  Level Cleveland Center
Tue 09:30:47 PM 41.8069 -77.1647 245° Southwest 245 282 11,900  Level Cleveland Center
Tue 09:31:47 PM 41.7800 -77.2442 246° West 245 282 11,900  Level Cleveland Center
Tue 09:32:47 PM 41.7533 -77.3264 247° West 245 282 11,900  Level Cleveland Center
Tue 09:33:47 PM 41.7242 -77.4058 244° Southwest 245 282 11,900  Level Cleveland Center
Tue 09:34:47 PM 41.6931 -77.4881 243° Southwest 245 282 11,900  Level Cleveland Center
Tue 09:35:47 PM 41.6639 -77.5644 243° Southwest 250 288 11,900  Level Cleveland Center
Tue 09:36:47 PM 41.6347 -77.6436 244° Southwest 245 282 11,900  Level Cleveland Center
Tue 09:37:47 PM 41.6056 -77.7256 245° Southwest 245 282 11,900  Level Cleveland Center
Tue 09:38:47 PM 41.5783 -77.8100 247° West 245 282 11,900  Level Cleveland Center
Tue 09:39:47 PM 41.5469 -77.8889 242° Southwest 245 282 11,900  Level Cleveland Center
Tue 09:40:47 PM 41.5175 -77.9736 245° Southwest 245 282 11,900  Level Cleveland Center
Tue 09:41:47 PM 41.4903 -78.0550 246° West 245 282 11,900  Level Cleveland Center
Tue 09:42:47 PM 41.4650 -78.1364 248° West 239 275 11,900  Level Cleveland Center
Tue 09:43:47 PM 41.4394 -78.2203 248° West 239 275 11,900  Level Cleveland Center
Tue 09:44:47 PM 41.4142 -78.3044 248° West 239 275 11,900  Level Cleveland Center
Tue 09:45:47 PM 41.3889 -78.3939 249° West 239 275 11,900  Level Cleveland Center
Tue 09:46:47 PM 41.3672 -78.4719 250° West 244 281 11,900  Level Cleveland Center
Tue 09:47:47 PM 41.3417 -78.5531 247° West 244 281 11,900  Level Cleveland Center
Tue 09:48:47 PM 41.3161 -78.6397 249° West 244 281 11,900  Level Cleveland Center
Tue 09:49:47 PM 41.2903 -78.7206 247° West 244 281 11,900  Level Cleveland Center
Tue 09:50:47 PM 41.2644 -78.8042 248° West 244 281 11,900  Level Cleveland Center
Tue 09:51:47 PM 41.2408 -78.8878 249° West 249 287 11,900  Level Cleveland Center
Tue 09:52:47 PM 41.2108 -78.9767 246° West 249 287 11,900  Level Cleveland Center
Tue 09:53:47 PM 41.1867 -79.0492 246° West 249 287 11,900  Level Cleveland Center
Tue 09:54:47 PM 41.1628 -79.1350 250° West 249 287 11,900  Level Cleveland Center
Tue 09:55:47 PM 41.1389 -79.2183 249° West 254 292 11,900  Level Cleveland Center
Tue 09:56:47 PM 41.1150 -79.3069 250° West 254 292 11,900  Level Cleveland Center
Tue 09:57:47 PM 41.0908 -79.3875 248° West 254 292 11,900  Level Cleveland Center
Tue 09:58:47 PM 41.0644 -79.4706 247° West 254 292 11,900  Level Cleveland Center
Tue 09:59:47 PM 41.0422 -79.5536 250° West 254 292 11,900  Level Cleveland Center
Tue 10:00:47 PM 41.0158 -79.6336 246° West 254 292 11,900  Level Cleveland Center
Tue 10:01:47 PM 40.9894 -79.7167 247° West 254 292 11,900  Level Cleveland Center
Tue 10:02:47 PM 40.9608 -79.7967 245° Southwest 254 292 11,900  Level Cleveland Center
Tue 10:03:47 PM 40.9342 -79.8767 246° West 254 292 11,900  Level Cleveland Center
Tue 10:04:47 PM 40.9078 -79.9567 246° West 249 287 11,900  Level Cleveland Center
Tue 10:05:47 PM 40.8789 -80.0394 245° Southwest 249 287 11,900  Level Cleveland Center
Tue 10:06:47 PM 40.8500 -80.1192 244° Southwest 249 287 11,900  Level Cleveland Center
Tue 10:07:47 PM 40.8233 -80.1989 246° West 244 281 11,900  Level Cleveland Center
Tue 10:08:47 PM 40.7839 -80.2814 238° Southwest 244 281 11,900  Level Cleveland Center
Tue 10:09:47 PM 40.7528 -80.3392 235° Southwest 244 281 11,900  Level Cleveland Center
Tue 10:10:47 PM 40.7111 -80.4242 237° Southwest 244 281 11,900  Level Cleveland Center
Tue 10:11:47 PM 40.6717 -80.4983 235° Southwest 244 281 11,900  Level Cleveland Center
Tue 10:12:47 PM 40.6322 -80.5694 234° Southwest 244 281 11,900  Level Cleveland Center
Tue 10:13:47 PM 40.5986 -80.6350 236° Southwest 244 281 11,900  Level Cleveland Center
Tue 10:14:47 PM 40.5550 -80.7117 233° Southwest 244 281 11,900  Level Cleveland Center
Tue 10:15:47 PM 40.5111 -80.7933 235° Southwest 249 287 11,900  Level Cleveland Center
Tue 10:16:47 PM 40.4733 -80.8669 236° Southwest 249 287 11,900  Level Cleveland Center
Tue 10:17:47 PM 40.4356 -80.9406 236° Southwest 249 287 11,900  Level Cleveland Center
Tue 10:18:47 PM 40.3958 -81.0139 235° Southwest 249 287 11,900 50 Level Cleveland Center
Tue 10:19:47 PM 40.3578 -81.0844 235° Southwest 249 287 12,000 50 Climbing Cleveland Center
Tue 10:20:47 PM 40.3200 -81.1603 237° Southwest 249 287 12,000  Level Cleveland Center
Tue 10:21:47 PM 40.2819 -81.2364 237° Southwest 254 292 12,000 -40 Level Cleveland Center
Tue 10:23:16 PM 40.2256 -81.3411 235° Southwest 247 284 11,900 -40 Descending Indianapolis Center
Tue 10:24:17 PM 40.1864 -81.4169 236° Southwest 247 284 11,900  Level Indianapolis Center
Tue 10:25:18 PM 40.1456 -81.4944 235° Southwest 253 291 11,900  Level Indianapolis Center
Tue 10:26:19 PM 40.1089 -81.5747 239° Southwest 254 292 11,900  Level Indianapolis Center
Tue 10:27:21 PM 40.0822 -81.6614 248° West 254 292 11,900  Level Indianapolis Center
Tue 10:28:22 PM 40.0517 -81.7600 248° West 251 289 11,900  Level Indianapolis Center
Tue 10:29:23 PM 40.0261 -81.8447 249° West 252 290 11,900  Level Indianapolis Center
Tue 10:30:24 PM 39.9997 -81.9294 248° West 249 287 11,900  Level Indianapolis Center
Tue 10:31:25 PM 39.9747 -82.0139 249° West 249 287 11,900  Level Indianapolis Center
Tue 10:32:27 PM 39.9467 -82.0972 246° West 250 288 11,900  Level Indianapolis Center
Tue 10:33:28 PM 39.9192 -82.1783 246° West 246 283 11,900  Level Indianapolis Center
Tue 10:34:29 PM 39.8928 -82.2611 247° West 247 284 11,900  Level Indianapolis Center
Tue 10:35:30 PM 39.8639 -82.3422 245° Southwest 245 282 11,900  Level Indianapolis Center
Tue 10:36:32 PM 39.8367 -82.4244 247° West 246 283 11,900  Level Indianapolis Center
Tue 10:37:33 PM 39.8100 -82.5072 247° West 247 284 11,900  Level Indianapolis Center
Tue 10:38:34 PM 39.7819 -82.5886 246° West 245 282 11,900  Level Indianapolis Center
Tue 10:39:35 PM 39.7531 -82.6700 245° Southwest 247 284 11,900  Level Indianapolis Center
Tue 10:40:36 PM 39.7236 -82.7514 245° Southwest 248 285 11,900  Level Indianapolis Center
Tue 10:41:37 PM 39.6950 -82.8333 246° West 248 285 11,900  Level Indianapolis Center
Tue 10:42:39 PM 39.6672 -82.9158 246° West 248 285 11,900  Level Indianapolis Center
Tue 10:43:40 PM 39.6372 -82.9972 244° Southwest 248 285 11,900  Level Indianapolis Center
Tue 10:44:41 PM 39.6078 -83.0794 245° Southwest 248 285 11,900  Level Indianapolis Center
Tue 10:45:42 PM 39.5772 -83.1594 244° Southwest 246 283 11,900  Level Indianapolis Center
Tue 10:46:43 PM 39.5492 -83.2422 246° West 247 284 11,900  Level Indianapolis Center
Tue 10:47:45 PM 39.5203 -83.3250 246° West 248 285 11,900  Level Indianapolis Center
Tue 10:48:46 PM 39.4917 -83.4058 245° Southwest 246 283 11,900 -344 Level Indianapolis Center
Tue 10:49:47 PM 39.4564 -83.5047 245° Southwest 255 293 11,200 -443 Descending Indianapolis Center
Tue 10:50:48 PM 39.4258 -83.5886 245° Southwest 256 295 11,000 -98 Descending Indianapolis Center
Tue 10:51:50 PM 39.3969 -83.6717 246° West 250 288 11,000  Level Indianapolis Center
Tue 10:52:51 PM 39.3675 -83.7514 244° Southwest 243 280 11,000  Level Indianapolis Center
Tue 10:53:52 PM 39.3378 -83.8336 245° Southwest 249 287 11,000  Level Indianapolis Center
Tue 10:54:54 PM 39.3075 -83.9133 244° Southwest 246 283 11,000  Level Indianapolis Center
Tue 10:55:55 PM 39.2778 -83.9964 245° Southwest 250 288 11,000 -541 Level Indianapolis Center
Tue 10:56:56 PM 39.2478 -84.0831 246° West 259 298 9,900 -1,131 Descending Indianapolis Center
Tue 10:57:57 PM 39.2147 -84.1764 245° Southwest 281 323 8,700 -1,073 Descending Indianapolis Center
Tue 10:58:59 PM 39.1825 -84.2733 247° West 289 333 7,700 -829 Descending Indianapolis Center
Tue 11:00:00 PM 39.1558 -84.3619 249° West 269 310 7,000 -738 Descending Indianapolis Center
Tue 11:01:01 PM 39.1333 -84.4433 250° West 247 284 6,200 -1,082 Descending Indianapolis Center
Tue 11:02:02 PM 39.1206 -84.5233 258° West 231 266 4,800 -1,171 Descending Indianapolis Center
Tue 11:03:04 PM 39.1178 -84.6011 267° West 221 254 3,800 -1,271 Descending Indianapolis Center
Tue 11:04:00 PM 39.1167 -84.6500 268° West 155 178 2,300 -1,293 Descending Cincinnati TRACON
Tue 11:05:00 PM 39.0833 -84.6833 218° Southwest 140 161 1,300 -1,000 Descending Cincinnati TRACON
Tue 11:06:00 PM 39.0488 -84.6678 247° West  Level Estimated
Tue 11:13:00 PM 39.0488 -84.6678 247° West  Level Estimated

Login

Don't have an account? Register now (free) for customized features, flight alerts, and more!